createdAt,value
2023-01-06T00:01:51.101Z,98628.78
2023-01-06T00:04:20.082Z,98627.78
2023-01-06T00:06:49.600Z,98639.69
2023-01-06T00:09:19.326Z,98632.66
2023-01-06T00:11:49.217Z,98626.81
2023-01-06T00:14:17.841Z,98625.63
2023-01-06T00:16:47.234Z,98622.19
2023-01-06T00:19:17.144Z,98623.66
2023-01-06T00:21:45.994Z,98620.88
2023-01-06T00:24:15.869Z,98624.94
2023-01-06T00:26:46.587Z,98625.75
2023-01-06T00:29:16.787Z,98621.34
2023-01-06T00:31:45.789Z,98614.47
2023-01-06T00:34:17.207Z,98611.69
2023-01-06T00:36:46.877Z,98623.75
2023-01-06T00:39:16.460Z,98621.81
2023-01-06T00:42:03.733Z,98625.41
2023-01-06T00:44:33.812Z,98623.41
2023-01-06T00:47:03.584Z,98625.03
2023-01-06T00:49:32.656Z,98623.41
2023-01-06T00:52:01.302Z,98630.28
2023-01-06T00:54:30.825Z,98633.25
2023-01-06T00:57:01.542Z,98639.09
2023-01-06T00:59:31.189Z,98643.56
2023-01-06T01:02:01.331Z,98633.41
2023-01-06T01:04:32.204Z,98638.19
2023-01-06T01:07:02.178Z,98638.84
2023-01-06T01:09:33.744Z,98632.16
2023-01-06T01:12:14.704Z,98635.56
2023-01-06T01:14:48.062Z,98646.56
2023-01-06T01:17:20.302Z,98649.69
2023-01-06T01:19:52.476Z,98653.28
2023-01-06T01:22:22.202Z,98642.34
2023-01-06T01:24:51.611Z,98642.19
2023-01-06T01:27:22.485Z,98645.31
2023-01-06T01:29:53.220Z,98634.03
2023-01-06T01:32:23.337Z,98633.88
2023-01-06T01:34:53.846Z,98633.88
2023-01-06T01:37:22.818Z,98629.47
2023-01-06T01:39:53.776Z,98635.56
2023-01-06T01:42:25.137Z,98626.91
2023-01-06T01:45:08.158Z,98628.88
2023-01-06T01:47:47.584Z,98634.13
2023-01-06T01:50:29.513Z,98634.28
2023-01-06T01:53:06.556Z,98638.88
2023-01-06T01:55:39.193Z,98634.81
2023-01-06T01:58:14.636Z,98639.56
2023-01-06T02:00:46.165Z,98637.94
2023-01-06T02:03:17.543Z,98639.88
2023-01-06T02:05:52.870Z,98641.72
2023-01-06T02:08:34.113Z,98638.16
2023-01-06T02:11:04.954Z,98637.34
2023-01-06T02:13:38.754Z,98629.66
2023-01-06T02:16:21.664Z,98627.03
2023-01-06T02:19:06.749Z,98629.66
2023-01-06T02:22:13.327Z,98632.25
2023-01-06T02:25:21.622Z,98624.63
2023-01-06T02:28:42.166Z,98619.53
2023-01-06T02:31:49.196Z,98621.53
2023-01-06T02:34:40.341Z,98625.13
2023-01-06T02:37:30.558Z,98621.53
2023-01-06T02:40:24.783Z,98619.88
2023-01-06T02:43:11.317Z,98608.63
2023-01-06T02:45:53.656Z,98607.78
2023-01-06T02:48:36.589Z,98602.56
2023-01-06T02:51:18.052Z,98601.59
2023-01-06T02:54:07.796Z,98599.94
2023-01-06T02:56:48.341Z,98593.13
2023-01-06T02:59:26.672Z,98589.84
2023-01-06T03:01:58.674Z,98598.84
2023-01-06T03:04:37.611Z,98601.63
2023-01-06T03:07:08.391Z,98597.56
2023-01-06T03:09:41.115Z,98603.59
2023-01-06T03:12:21.666Z,98607.19
2023-01-06T03:14:57.665Z,98602.31
2023-01-06T03:17:28.449Z,98593.03
2023-01-06T03:19:58.969Z,98592.22
2023-01-06T03:22:29.230Z,98595.78
2023-01-06T03:24:58.328Z,98589.13
2023-01-06T03:27:29.414Z,98589.28
2023-01-06T03:29:59.331Z,98584.88
2023-01-06T03:32:42.140Z,98579.63
2023-01-06T03:35:31.239Z,98578.97
2023-01-06T03:38:17.053Z,98576.72
2023-01-06T03:40:56.950Z,98574.88
2023-01-06T03:43:38.056Z,98578.50
2023-01-06T03:46:26.358Z,98572.00
2023-01-06T03:49:05.896Z,98574.59
2023-01-06T03:51:49.413Z,98574.59
2023-01-06T03:54:35.880Z,98569.38
2023-01-06T03:57:10.605Z,98564.50
2023-01-06T03:59:46.974Z,98568.44
2023-01-06T04:02:17.166Z,98560.44
2023-01-06T04:04:46.732Z,98561.22
2023-01-06T04:07:17.523Z,98570.06
2023-01-06T04:09:47.426Z,98569.06
2023-01-06T04:12:45.887Z,98566.44
2023-01-06T04:15:18.788Z,98566.44
2023-01-06T04:17:49.085Z,98571.03
2023-01-06T04:20:22.102Z,98567.25
2023-01-06T04:22:55.622Z,98571.66
2023-01-06T04:25:24.627Z,98570.88
2023-01-06T04:27:53.618Z,98571.66
2023-01-06T04:30:23.198Z,98570.88
2023-01-06T04:32:52.574Z,98566.44
2023-01-06T04:35:21.049Z,98564.84
2023-01-06T04:37:49.989Z,98570.88
2023-01-06T04:40:21.897Z,98570.06
2023-01-06T04:43:08.121Z,98568.09
2023-01-06T04:45:38.151Z,98562.22
2023-01-06T04:48:10.201Z,98564.84
2023-01-06T04:50:39.214Z,98567.78
2023-01-06T04:53:09.682Z,98560.94
2023-01-06T04:55:42.464Z,98553.09
2023-01-06T04:58:12.522Z,98547.22
2023-01-06T05:00:43.035Z,98551.66
2023-01-06T05:03:13.069Z,98559.63
2023-01-06T05:05:43.962Z,98554.56
2023-01-06T05:08:13.939Z,98566.19
2023-01-06T05:10:45.812Z,98560.97
2023-01-06T05:13:15.364Z,98562.94
2023-01-06T05:15:43.852Z,98571.75
2023-01-06T05:18:14.080Z,98576.97
2023-01-06T05:20:43.937Z,98576.16
2023-01-06T05:23:15.019Z,98576.16
2023-01-06T05:25:46.311Z,98572.56
2023-01-06T05:28:15.396Z,98560.81
2023-01-06T05:30:45.465Z,98551.34
2023-01-06T05:33:14.839Z,98547.94
2023-01-06T05:35:44.498Z,98550.38
2023-01-06T05:38:13.409Z,98567.22
2023-01-06T05:40:45.396Z,98568.53
2023-01-06T05:43:15.229Z,98570.31
2023-01-06T05:45:44.660Z,98571.13
2023-01-06T05:48:14.630Z,98562.31
2023-01-06T05:50:44.145Z,98551.06
2023-01-06T05:53:13.753Z,98552.84
2023-01-06T05:55:45.646Z,98581.56
2023-01-06T05:58:15.551Z,98588.78
2023-01-06T06:00:45.505Z,98581.56
2023-01-06T06:03:14.888Z,98579.78
2023-01-06T06:05:44.778Z,98576.69
2023-01-06T06:08:14.693Z,98574.72
2023-01-06T06:10:45.127Z,98576.69
2023-01-06T06:13:15.591Z,98578.34
2023-01-06T06:15:46.176Z,98578.34
2023-01-06T06:18:16.198Z,98581.56
2023-01-06T06:20:45.703Z,98573.91
2023-01-06T06:23:16.237Z,98575.72
2023-01-06T06:25:47.663Z,98583.56
2023-01-06T06:28:16.687Z,98576.34
2023-01-06T06:30:45.061Z,98582.41
2023-01-06T06:33:14.094Z,98591.06
2023-01-06T06:35:44.013Z,98592.66
2023-01-06T06:38:13.432Z,98595.28
2023-01-06T06:40:47.460Z,98596.44
2023-01-06T06:43:18.602Z,98588.09
2023-01-06T06:45:48.970Z,98593.31
2023-01-06T06:48:18.623Z,98588.91
2023-01-06T06:50:48.136Z,98583.84
2023-01-06T06:53:18.562Z,98586.47
2023-01-06T06:55:49.387Z,98589.25
2023-01-06T06:58:19.722Z,98588.25
2023-01-06T07:00:49.254Z,98592.03
2023-01-06T07:03:19.044Z,98587.78
2023-01-06T07:05:50.987Z,98590.91
2023-01-06T07:08:21.280Z,98589.91
2023-01-06T07:10:53.097Z,98600.53
2023-01-06T07:13:22.654Z,98593.53
2023-01-06T07:15:52.384Z,98583.38
2023-01-06T07:18:22.623Z,98586.19
2023-01-06T07:20:54.218Z,98595.47
2023-01-06T07:23:24.513Z,98609.19
2023-01-06T07:25:58.115Z,98610.66
2023-01-06T07:28:27.086Z,98614.56
2023-01-06T07:30:57.182Z,98625.00
2023-01-06T07:33:26.327Z,98627.97
2023-01-06T07:35:58.285Z,98625.97
2023-01-06T07:38:28.274Z,98632.84
2023-01-06T07:41:03.854Z,98627.63
2023-01-06T07:43:32.770Z,98634.31
2023-01-06T07:46:03.475Z,98624.03
2023-01-06T07:48:34.051Z,98632.69
2023-01-06T07:51:04.030Z,98625.66
2023-01-06T07:53:34.662Z,98640.00
2023-01-06T07:56:04.670Z,98626.94
2023-01-06T07:58:33.593Z,98626.94
2023-01-06T08:01:08.406Z,98618.78
2023-01-06T08:03:38.950Z,98624.38
2023-01-06T08:06:10.788Z,98616.84
2023-01-06T08:08:40.013Z,98635.78
2023-01-06T08:11:14.412Z,98635.44
2023-01-06T08:13:44.936Z,98639.19
2023-01-06T08:16:15.362Z,98632.84
2023-01-06T08:18:44.682Z,98622.72
2023-01-06T08:21:14.489Z,98621.72
2023-01-06T08:23:43.448Z,98621.72
2023-01-06T08:26:18.317Z,98611.47
2023-01-06T08:28:48.440Z,98602.97
2023-01-06T08:31:21.468Z,98617.50
2023-01-06T08:33:51.806Z,98615.19
2023-01-06T08:36:26.616Z,98610.81
2023-01-06T08:38:56.516Z,98612.09
2023-01-06T08:41:27.428Z,98616.16
2023-01-06T08:43:57.369Z,98606.72
2023-01-06T08:46:28.143Z,98606.38
2023-01-06T08:48:59.343Z,98605.91
2023-01-06T08:51:29.302Z,98614.91
2023-01-06T08:53:59.275Z,98618.13
2023-01-06T08:56:32.528Z,98605.72
2023-01-06T08:59:04.433Z,98611.75
2023-01-06T09:01:36.993Z,98615.84
2023-01-06T09:04:10.040Z,98603.44
2023-01-06T09:06:40.633Z,98620.75
2023-01-06T09:09:12.132Z,98622.00
2023-01-06T09:11:45.804Z,98626.44
2023-01-06T09:14:15.731Z,98623.66
2023-01-06T09:16:45.318Z,98630.50
2023-01-06T09:19:17.049Z,98632.94
2023-01-06T09:21:46.501Z,98624.47
2023-01-06T09:24:17.939Z,98625.09
2023-01-06T09:26:49.475Z,98623.66
2023-01-06T09:29:20.843Z,98634.91
2023-01-06T09:31:49.849Z,98631.81
2023-01-06T09:34:19.319Z,98645.50
2023-01-06T09:36:49.343Z,98650.38
2023-01-06T09:39:19.979Z,98662.13
2023-01-06T09:42:25.025Z,98663.94
2023-01-06T09:44:59.324Z,98674.22
2023-01-06T09:47:35.681Z,98679.28
2023-01-06T09:50:12.553Z,98670.31
2023-01-06T09:52:48.635Z,98668.66
2023-01-06T09:55:27.880Z,98671.28
2023-01-06T09:58:07.703Z,98671.56
2023-01-06T10:00:43.272Z,98672.22
2023-01-06T10:03:17.952Z,98674.53
2023-01-06T10:06:06.091Z,98669.94
2023-01-06T10:08:49.622Z,98672.25
2023-01-06T10:11:33.361Z,98668.50
2023-01-06T10:14:18.635Z,98669.44
2023-01-06T10:17:10.622Z,98667.81
2023-01-06T10:20:04.006Z,98667.66
2023-01-06T10:22:47.997Z,98670.75
2023-01-06T10:25:21.956Z,98665.66
2023-01-06T10:27:57.022Z,98673.69
2023-01-06T10:30:40.252Z,98682.00
2023-01-06T10:33:21.709Z,98681.66
2023-01-06T10:35:52.779Z,98682.28
2023-01-06T10:38:32.101Z,98689.50
2023-01-06T10:41:33.037Z,98689.16
2023-01-06T10:44:02.759Z,98696.19
2023-01-06T10:46:37.739Z,98685.59
2023-01-06T10:49:15.696Z,98682.44
2023-01-06T10:51:52.233Z,98671.81
2023-01-06T10:54:28.242Z,98665.78
2023-01-06T10:57:05.022Z,98661.69
2023-01-06T10:59:33.981Z,98651.34
2023-01-06T11:02:05.381Z,98651.16
2023-01-06T11:04:35.563Z,98638.47
2023-01-06T11:07:11.183Z,98637.34
2023-01-06T11:09:43.437Z,98635.19
2023-01-06T11:12:20.525Z,98631.88
2023-01-06T11:14:57.778Z,98640.41
2023-01-06T11:17:29.868Z,98637.69
2023-01-06T11:20:31.496Z,98641.75
2023-01-06T11:23:21.655Z,98647.59
2023-01-06T11:26:18.535Z,98646.28
2023-01-06T11:28:50.889Z,98646.28
2023-01-06T11:31:26.640Z,98645.47
2023-01-06T11:34:01.513Z,98644.50
2023-01-06T11:36:35.497Z,98637.13
2023-01-06T11:39:18.523Z,98640.53
2023-01-06T11:41:52.694Z,98637.13
2023-01-06T11:44:33.209Z,98630.09
2023-01-06T11:47:08.840Z,98624.50
2023-01-06T11:49:45.571Z,98631.56
2023-01-06T11:52:26.136Z,98618.50
2023-01-06T11:55:04.961Z,98624.53
2023-01-06T11:57:44.023Z,98617.88
2023-01-06T12:00:37.344Z,98619.31
2023-01-06T12:03:19.200Z,98608.03
2023-01-06T12:05:58.707Z,98603.97
2023-01-06T12:08:36.692Z,98608.22
2023-01-06T12:11:14.661Z,98613.28
2023-01-06T12:14:06.585Z,98616.53
2023-01-06T12:16:42.217Z,98614.56
2023-01-06T12:19:22.174Z,98609.53
2023-01-06T12:21:54.259Z,98618.03
2023-01-06T12:24:25.375Z,98613.84
2023-01-06T12:26:56.807Z,98615.94
2023-01-06T12:29:27.100Z,98617.88
2023-01-06T12:32:12.276Z,98607.75
2023-01-06T12:34:49.205Z,98606.13
2023-01-06T12:37:27.373Z,98601.56
2023-01-06T12:40:05.127Z,98603.97
2023-01-06T12:42:43.593Z,98607.28
2023-01-06T12:45:19.810Z,98599.91
2023-01-06T12:47:55.338Z,98603.16
2023-01-06T12:50:37.952Z,98602.66
2023-01-06T12:53:21.294Z,98602.97
2023-01-06T12:56:14.358Z,98608.19
2023-01-06T12:58:58.642Z,98607.72
2023-01-06T13:01:41.324Z,98606.38
2023-01-06T13:04:54.235Z,98608.38
2023-01-06T13:07:42.534Z,98607.72
2023-01-06T13:10:29.435Z,98613.59
2023-01-06T13:13:44.645Z,98608.50
2023-01-06T13:16:27.510Z,98609.69
2023-01-06T13:19:17.690Z,98610.50
2023-01-06T13:21:50.060Z,98608.19
2023-01-06T13:25:22.780Z,98604.75
2023-01-06T13:28:11.657Z,98610.00
2023-01-06T13:31:19.017Z,98611.09
2023-01-06T13:34:33.289Z,98604.22
2023-01-06T13:37:34.831Z,98603.63
2023-01-06T13:40:11.886Z,98615.25
2023-01-06T13:42:49.531Z,98610.03
2023-01-06T13:45:28.898Z,98608.69
2023-01-06T13:48:00.590Z,98603.75
2023-01-06T13:50:30.997Z,98610.63
2023-01-06T13:53:01.001Z,98607.16
2023-01-06T13:55:36.121Z,98601.91
2023-01-06T13:58:38.922Z,98597.78
2023-01-06T14:01:13.402Z,98605.97
2023-01-06T14:03:44.254Z,98604.34
2023-01-06T14:06:35.118Z,98598.31
2023-01-06T14:09:05.329Z,98605.03
2023-01-06T14:11:38.531Z,98604.88
2023-01-06T14:14:29.623Z,98605.50
2023-01-06T14:17:00.670Z,98611.56
2023-01-06T14:19:34.649Z,98605.97
2023-01-06T14:22:19.344Z,98611.19
2023-01-06T14:24:54.525Z,98613.47
2023-01-06T14:28:15.471Z,98624.59
2023-01-06T14:30:46.126Z,98612.50
2023-01-06T14:33:36.581Z,98610.56
2023-01-06T14:36:15.100Z,98618.06
2023-01-06T14:38:49.827Z,98613.66
2023-01-06T14:41:28.124Z,98605.81
2023-01-06T14:44:03.551Z,98607.59
2023-01-06T14:46:40.477Z,98604.66
2023-01-06T14:49:21.914Z,98600.38
2023-01-06T14:51:57.090Z,98592.91
2023-01-06T14:54:33.591Z,98597.16
2023-01-06T14:57:06.546Z,98602.19
2023-01-06T14:59:36.221Z,98599.91
2023-01-06T15:02:18.076Z,98592.28
2023-01-06T15:04:58.736Z,98600.94
2023-01-06T15:07:29.185Z,98602.72
2023-01-06T15:10:22.542Z,98605.50
2023-01-06T15:12:56.996Z,98605.22
2023-01-06T15:15:29.862Z,98611.59
2023-01-06T15:18:02.907Z,98603.75
2023-01-06T15:20:41.099Z,98600.00
2023-01-06T15:23:16.698Z,98603.44
2023-01-06T15:25:49.879Z,98604.09
2023-01-06T15:28:26.609Z,98619.44
2023-01-06T15:30:56.299Z,98618.47
2023-01-06T15:33:37.783Z,98620.44
2023-01-06T15:36:10.671Z,98626.03
2023-01-06T15:38:45.331Z,98615.72
2023-01-06T15:41:28.893Z,98622.94
2023-01-06T15:43:58.615Z,98624.06
2023-01-06T15:46:38.876Z,98629.31
2023-01-06T15:49:21.194Z,98619.50
2023-01-06T15:51:59.584Z,98634.19
2023-01-06T15:54:32.896Z,98625.38
2023-01-06T15:57:15.690Z,98631.91
2023-01-06T15:59:57.755Z,98626.69
2023-01-06T16:02:32.245Z,98630.63
2023-01-06T16:05:02.562Z,98638.47
2023-01-06T16:07:40.778Z,98633.25
2023-01-06T16:10:35.285Z,98630.63
2023-01-06T16:13:27.837Z,98631.28
2023-01-06T16:16:06.324Z,98630.63
2023-01-06T16:18:40.399Z,98635.69
2023-01-06T16:21:24.308Z,98629.19
2023-01-06T16:23:58.157Z,98627.53
2023-01-06T16:26:30.680Z,98626.56
2023-01-06T16:29:02.251Z,98626.41
2023-01-06T16:31:34.462Z,98625.75
2023-01-06T16:34:26.813Z,98622.50
2023-01-06T16:37:01.422Z,98615.63
2023-01-06T16:39:32.825Z,98613.84
2023-01-06T16:42:40.580Z,98606.50
2023-01-06T16:45:19.202Z,98613.38
2023-01-06T16:47:48.759Z,98604.56
2023-01-06T16:50:23.378Z,98610.59
2023-01-06T16:53:07.710Z,98608.81
2023-01-06T16:55:41.667Z,98613.03
2023-01-06T16:58:19.915Z,98619.56
2023-01-06T17:00:52.621Z,98622.03
2023-01-06T17:03:23.942Z,98619.56
2023-01-06T17:05:54.337Z,98613.38
2023-01-06T17:08:29.563Z,98618.59
2023-01-06T17:11:04.693Z,98613.38
2023-01-06T17:13:36.248Z,98620.22
2023-01-06T17:16:17.388Z,98612.56
2023-01-06T17:18:57.450Z,98612.38
2023-01-06T17:21:33.977Z,98610.59
2023-01-06T17:24:16.260Z,98607.16
2023-01-06T17:26:53.075Z,98605.38
2023-01-06T17:29:23.899Z,98605.38
2023-01-06T17:31:58.390Z,98605.38
2023-01-06T17:34:33.699Z,98610.59
2023-01-06T17:37:12.313Z,98612.19
2023-01-06T17:39:44.927Z,98612.19
2023-01-06T17:42:32.533Z,98612.38
2023-01-06T17:45:02.289Z,98608.13
2023-01-06T17:47:40.962Z,98621.22
2023-01-06T17:50:31.804Z,98616.81
2023-01-06T17:53:44.184Z,98623.81
2023-01-06T17:56:14.037Z,98615.00
2023-01-06T17:58:47.065Z,98621.22
2023-01-06T18:01:24.303Z,98621.22
2023-01-06T18:03:59.827Z,98620.22
2023-01-06T18:06:31.130Z,98625.47
2023-01-06T18:09:12.606Z,98617.44
2023-01-06T18:11:44.013Z,98615.00
2023-01-06T18:14:31.499Z,98615.81
2023-01-06T18:17:18.246Z,98622.03
2023-01-06T18:19:47.375Z,98616.81
2023-01-06T18:22:19.927Z,98630.22
2023-01-06T18:24:52.018Z,98619.91
2023-01-06T18:27:26.604Z,98625.81
2023-01-06T18:30:02.882Z,98628.22
2023-01-06T18:32:34.258Z,98635.44
2023-01-06T18:35:16.212Z,98632.97
2023-01-06T18:37:46.711Z,98629.41
2023-01-06T18:40:21.141Z,98623.34
2023-01-06T18:42:51.218Z,98624.16
2023-01-06T18:45:26.707Z,98638.88
2023-01-06T18:48:01.291Z,98628.41
2023-01-06T18:50:42.258Z,98630.03
2023-01-06T18:53:24.754Z,98627.41
2023-01-06T18:55:55.299Z,98635.91
2023-01-06T18:58:46.406Z,98631.66
2023-01-06T19:01:20.994Z,98640.16
2023-01-06T19:04:03.970Z,98642.47
2023-01-06T19:06:42.148Z,98641.31
2023-01-06T19:09:22.762Z,98647.19
2023-01-06T19:12:02.743Z,98641.16
2023-01-06T19:14:37.421Z,98645.56
2023-01-06T19:17:23.671Z,98650.63
2023-01-06T19:19:56.179Z,98645.56
2023-01-06T19:22:29.014Z,98644.56
2023-01-06T19:25:05.547Z,98643.75
2023-01-06T19:27:49.909Z,98651.59
2023-01-06T19:30:45.196Z,98649.63
2023-01-06T19:33:36.690Z,98653.25
2023-01-06T19:36:43.760Z,98647.34
2023-01-06T19:39:32.149Z,98643.75
2023-01-06T19:42:15.353Z,98638.34
2023-01-06T19:44:44.294Z,98642.78
2023-01-06T19:47:20.661Z,98637.56
2023-01-06T19:49:55.772Z,98631.66
2023-01-06T19:52:35.179Z,98635.91
2023-01-06T19:55:23.024Z,98629.88
2023-01-06T19:57:55.041Z,98626.28
2023-01-06T20:00:42.919Z,98633.47
2023-01-06T20:03:29.418Z,98632.63
2023-01-06T20:05:59.717Z,98630.22
2023-01-06T20:08:30.361Z,98626.63
2023-01-06T20:11:00.091Z,98624.16
2023-01-06T20:13:29.277Z,98625.81
2023-01-06T20:15:58.813Z,98629.41
2023-01-06T20:18:28.279Z,98629.06
2023-01-06T20:20:59.142Z,98625.47
2023-01-06T20:23:28.691Z,98617.31
2023-01-06T20:25:58.963Z,98608.63
2023-01-06T20:28:28.683Z,98600.66
2023-01-06T20:30:59.083Z,98612.06
2023-01-06T20:33:28.147Z,98606.84
2023-01-06T20:35:58.370Z,98614.53
2023-01-06T20:38:26.839Z,98624.81
2023-01-06T20:40:56.863Z,98622.19
2023-01-06T20:43:26.936Z,98623.00
2023-01-06T20:45:57.101Z,98620.38
2023-01-06T20:48:27.335Z,98616.16
2023-01-06T20:50:57.031Z,98615.34
2023-01-06T20:53:28.235Z,98614.34
2023-01-06T20:55:58.301Z,98617.78
2023-01-06T20:58:28.132Z,98619.75
2023-01-06T21:00:57.676Z,98606.50
2023-01-06T21:03:26.779Z,98604.06
2023-01-06T21:05:57.982Z,98609.31
2023-01-06T21:08:29.592Z,98613.72
2023-01-06T21:10:58.956Z,98603.41
2023-01-06T21:13:29.823Z,98605.25
2023-01-06T21:16:00.176Z,98601.81
2023-01-06T21:18:30.371Z,98607.84
2023-01-06T21:20:59.473Z,98605.06
2023-01-06T21:23:30.904Z,98602.63
2023-01-06T21:26:00.359Z,98612.06
2023-01-06T21:28:29.965Z,98614.69
2023-01-06T21:30:59.504Z,98612.91
2023-01-06T21:33:29.455Z,98607.03
2023-01-06T21:35:58.574Z,98606.84
2023-01-06T21:38:28.923Z,98608.63
2023-01-06T21:41:23.499Z,98608.84
2023-01-06T21:43:51.555Z,98605.25
2023-01-06T21:46:21.270Z,98611.44
2023-01-06T21:48:50.208Z,98605.25
2023-01-06T21:51:20.289Z,98601.16
2023-01-06T21:53:50.310Z,98596.75
2023-01-06T21:56:19.873Z,98600.00
2023-01-06T21:58:49.372Z,98601.97
2023-01-06T22:01:20.892Z,98596.75
2023-01-06T22:03:50.991Z,98584.50
2023-01-06T22:06:21.990Z,98592.50
2023-01-06T22:08:54.981Z,98595.91
2023-01-06T22:11:23.540Z,98597.56
2023-01-06T22:13:54.553Z,98598.53
2023-01-06T22:16:23.822Z,98595.91
2023-01-06T22:18:55.124Z,98589.88
2023-01-06T22:21:24.105Z,98596.75
2023-01-06T22:23:58.540Z,98592.50
2023-01-06T22:26:27.693Z,98593.31
2023-01-06T22:28:57.006Z,98600.31
2023-01-06T22:31:28.315Z,98596.94
2023-01-06T22:33:57.404Z,98592.50
2023-01-06T22:36:27.570Z,98596.09
2023-01-06T22:38:58.615Z,98591.84
2023-01-06T22:41:27.620Z,98592.69
2023-01-06T22:43:57.063Z,98591.84
2023-01-06T22:46:27.449Z,98594.47
2023-01-06T22:48:56.454Z,98599.06
2023-01-06T22:51:27.413Z,98593.84
2023-01-06T22:53:58.333Z,98593.03
2023-01-06T22:56:28.012Z,98599.06
2023-01-06T22:58:57.469Z,98598.41
2023-01-06T23:01:27.742Z,98599.22
2023-01-06T23:03:57.763Z,98597.44
2023-01-06T23:06:27.420Z,98606.25
2023-01-06T23:09:00.520Z,98595.78
2023-01-06T23:11:31.971Z,98593.03
2023-01-06T23:14:00.916Z,98599.38
2023-01-06T23:16:30.609Z,98603.81
2023-01-06T23:19:00.146Z,98600.53
2023-01-06T23:21:33.310Z,98602.34
2023-01-06T23:24:06.165Z,98595.31
2023-01-06T23:26:41.240Z,98599.72
2023-01-06T23:29:10.312Z,98594.50
2023-01-06T23:31:47.796Z,98594.50
2023-01-06T23:34:19.156Z,98594.50
2023-01-06T23:36:49.332Z,98588.44
2023-01-06T23:39:21.572Z,98585.81
2023-01-06T23:41:50.999Z,98566.72
2023-01-06T23:44:22.105Z,98579.78
2023-01-06T23:46:51.698Z,98579.63
2023-01-06T23:49:22.063Z,98577.19
2023-01-06T23:51:52.137Z,98574.56
2023-01-06T23:54:24.302Z,98571.28
2023-01-06T23:56:53.820Z,98572.94
2023-01-06T23:59:24.202Z,98562.47
